sensor_id;sensor_type;location;lat;lon;timestamp;P1;durP1;ratioP1;P2;durP2;ratioP2
37527;SDS011;23372;52.050;4.810;2023-04-15T00:02:22;11.30;;;6.10;;
37527;SDS011;23372;52.050;4.810;2023-04-15T00:04:47;11.37;;;6.60;;
37527;SDS011;23372;52.050;4.810;2023-04-15T00:07:13;11.20;;;6.00;;
37527;SDS011;23372;52.050;4.810;2023-04-15T00:09:40;12.93;;;6.57;;
37527;SDS011;23372;52.050;4.810;2023-04-15T00:12:06;11.40;;;7.07;;
37527;SDS011;23372;52.050;4.810;2023-04-15T00:14:45;12.27;;;6.67;;
37527;SDS011;23372;52.050;4.810;2023-04-15T00:17:10;13.13;;;6.43;;
37527;SDS011;23372;52.050;4.810;2023-04-15T00:19:36;9.70;;;5.93;;
37527;SDS011;23372;52.050;4.810;2023-04-15T00:22:02;10.50;;;6.47;;
37527;SDS011;23372;52.050;4.810;2023-04-15T00:24:27;11.60;;;6.90;;
37527;SDS011;23372;52.050;4.810;2023-04-15T00:26:54;13.43;;;6.37;;
37527;SDS011;23372;52.050;4.810;2023-04-15T00:29:20;13.37;;;6.60;;
37527;SDS011;23372;52.050;4.810;2023-04-15T00:31:45;15.93;;;6.77;;
37527;SDS011;23372;52.050;4.810;2023-04-15T00:34:11;10.30;;;6.30;;
37527;SDS011;23372;52.050;4.810;2023-04-15T00:36:36;11.93;;;6.03;;
37527;SDS011;23372;52.050;4.810;2023-04-15T00:39:02;11.83;;;6.50;;
37527;SDS011;23372;52.050;4.810;2023-04-15T00:41:27;10.87;;;6.07;;
37527;SDS011;23372;52.050;4.810;2023-04-15T00:43:53;18.03;;;7.43;;
37527;SDS011;23372;52.050;4.810;2023-04-15T00:46:19;12.90;;;6.30;;
37527;SDS011;23372;52.050;4.810;2023-04-15T00:48:46;11.07;;;6.10;;
37527;SDS011;23372;52.050;4.810;2023-04-15T00:51:12;12.30;;;6.40;;
37527;SDS011;23372;52.050;4.810;2023-04-15T00:53:38;11.07;;;6.13;;
37527;SDS011;23372;52.050;4.810;2023-04-15T00:56:04;12.60;;;6.83;;
37527;SDS011;23372;52.050;4.810;2023-04-15T00:58:30;14.63;;;7.00;;
37527;SDS011;23372;52.050;4.810;2023-04-15T01:00:56;8.20;;;5.83;;
37527;SDS011;23372;52.050;4.810;2023-04-15T01:03:22;7.80;;;6.00;;
37527;SDS011;23372;52.050;4.810;2023-04-15T01:05:48;10.27;;;6.60;;
37527;SDS011;23372;52.050;4.810;2023-04-15T01:08:14;11.60;;;6.97;;
37527;SDS011;23372;52.050;4.810;2023-04-15T01:10:40;11.00;;;6.60;;
37527;SDS011;23372;52.050;4.810;2023-04-15T01:13:06;12.27;;;6.20;;
37527;SDS011;23372;52.050;4.810;2023-04-15T01:15:31;10.77;;;6.63;;
37527;SDS011;23372;52.050;4.810;2023-04-15T01:18:00;12.73;;;6.57;;
37527;SDS011;23372;52.050;4.810;2023-04-15T01:20:27;11.33;;;6.77;;
37527;SDS011;23372;52.050;4.810;2023-04-15T01:22:53;15.23;;;6.40;;
37527;SDS011;23372;52.050;4.810;2023-04-15T01:25:27;14.20;;;7.23;;
37527;SDS011;23372;52.050;4.810;2023-04-15T01:27:58;11.47;;;6.57;;
37527;SDS011;23372;52.050;4.810;2023-04-15T01:30:24;13.13;;;7.03;;
37527;SDS011;23372;52.050;4.810;2023-04-15T01:32:51;14.07;;;7.10;;
37527;SDS011;23372;52.050;4.810;2023-04-15T01:35:17;13.60;;;6.60;;
37527;SDS011;23372;52.050;4.810;2023-04-15T01:37:43;14.63;;;7.23;;
37527;SDS011;23372;52.050;4.810;2023-04-15T01:40:09;11.17;;;6.20;;
37527;SDS011;23372;52.050;4.810;2023-04-15T01:42:35;13.53;;;7.00;;
37527;SDS011;23372;52.050;4.810;2023-04-15T01:45:01;12.90;;;6.53;;
37527;SDS011;23372;52.050;4.810;2023-04-15T01:47:27;13.47;;;7.80;;
37527;SDS011;23372;52.050;4.810;2023-04-15T01:49:53;11.60;;;6.20;;
37527;SDS011;23372;52.050;4.810;2023-04-15T01:52:18;11.40;;;7.27;;
37527;SDS011;23372;52.050;4.810;2023-04-15T01:54:44;12.07;;;6.93;;
37527;SDS011;23372;52.050;4.810;2023-04-15T01:57:10;10.43;;;6.50;;
37527;SDS011;23372;52.050;4.810;2023-04-15T01:59:36;12.27;;;6.13;;
37527;SDS011;23372;52.050;4.810;2023-04-15T02:02:02;10.90;;;6.23;;
37527;SDS011;23372;52.050;4.810;2023-04-15T02:04:28;9.70;;;6.60;;
37527;SDS011;23372;52.050;4.810;2023-04-15T02:06:53;11.37;;;6.93;;
37527;SDS011;23372;52.050;4.810;2023-04-15T02:09:19;13.73;;;6.03;;
37527;SDS011;23372;52.050;4.810;2023-04-15T02:11:45;11.70;;;6.67;;
37527;SDS011;23372;52.050;4.810;2023-04-15T02:14:10;11.97;;;6.40;;
37527;SDS011;23372;52.050;4.810;2023-04-15T02:16:36;11.17;;;6.43;;
37527;SDS011;23372;52.050;4.810;2023-04-15T02:19:02;10.43;;;6.73;;
37527;SDS011;23372;52.050;4.810;2023-04-15T02:21:28;12.77;;;6.40;;
37527;SDS011;23372;52.050;4.810;2023-04-15T02:23:54;12.30;;;6.10;;
37527;SDS011;23372;52.050;4.810;2023-04-15T02:26:20;13.37;;;6.40;;
37527;SDS011;23372;52.050;4.810;2023-04-15T02:28:46;10.30;;;6.80;;
37527;SDS011;23372;52.050;4.810;2023-04-15T02:31:13;11.67;;;6.23;;
37527;SDS011;23372;52.050;4.810;2023-04-15T02:33:38;8.70;;;6.27;;
37527;SDS011;23372;52.050;4.810;2023-04-15T02:36:04;9.43;;;6.40;;
37527;SDS011;23372;52.050;4.810;2023-04-15T02:38:31;9.27;;;5.63;;
37527;SDS011;23372;52.050;4.810;2023-04-15T02:40:57;11.23;;;5.87;;
37527;SDS011;23372;52.050;4.810;2023-04-15T02:43:22;13.60;;;6.33;;
37527;SDS011;23372;52.050;4.810;2023-04-15T02:45:48;9.53;;;6.40;;
37527;SDS011;23372;52.050;4.810;2023-04-15T02:48:15;12.90;;;7.40;;
37527;SDS011;23372;52.050;4.810;2023-04-15T02:50:42;13.97;;;5.97;;
37527;SDS011;23372;52.050;4.810;2023-04-15T02:53:08;12.23;;;6.80;;
37527;SDS011;23372;52.050;4.810;2023-04-15T02:55:34;10.60;;;6.20;;
37527;SDS011;23372;52.050;4.810;2023-04-15T02:57:59;13.37;;;6.53;;
37527;SDS011;23372;52.050;4.810;2023-04-15T03:00:25;9.83;;;6.57;;
37527;SDS011;23372;52.050;4.810;2023-04-15T03:02:56;13.53;;;6.43;;
37527;SDS011;23372;52.050;4.810;2023-04-15T03:05:31;12.77;;;6.57;;
37527;SDS011;23372;52.050;4.810;2023-04-15T03:07:57;10.47;;;6.80;;
37527;SDS011;23372;52.050;4.810;2023-04-15T03:10:22;11.60;;;6.77;;
37527;SDS011;23372;52.050;4.810;2023-04-15T03:12:48;15.87;;;7.13;;
37527;SDS011;23372;52.050;4.810;2023-04-15T03:15:13;10.40;;;7.17;;
37527;SDS011;23372;52.050;4.810;2023-04-15T03:17:39;14.17;;;6.77;;
37527;SDS011;23372;52.050;4.810;2023-04-15T03:20:05;10.03;;;6.63;;
37527;SDS011;23372;52.050;4.810;2023-04-15T03:22:31;9.93;;;5.53;;
37527;SDS011;23372;52.050;4.810;2023-04-15T03:24:57;11.37;;;6.53;;
37527;SDS011;23372;52.050;4.810;2023-04-15T03:27:23;13.23;;;6.90;;
37527;SDS011;23372;52.050;4.810;2023-04-15T03:29:49;12.57;;;6.57;;
37527;SDS011;23372;52.050;4.810;2023-04-15T03:32:15;11.07;;;6.77;;
37527;SDS011;23372;52.050;4.810;2023-04-15T03:34:41;10.73;;;6.90;;
37527;SDS011;23372;52.050;4.810;2023-04-15T03:37:06;13.20;;;7.00;;
37527;SDS011;23372;52.050;4.810;2023-04-15T03:39:32;10.77;;;6.90;;
37527;SDS011;23372;52.050;4.810;2023-04-15T03:41:58;14.37;;;6.90;;
37527;SDS011;23372;52.050;4.810;2023-04-15T03:44:25;12.90;;;6.97;;
37527;SDS011;23372;52.050;4.810;2023-04-15T03:46:50;10.70;;;6.77;;
37527;SDS011;23372;52.050;4.810;2023-04-15T03:49:16;11.97;;;7.40;;
37527;SDS011;23372;52.050;4.810;2023-04-15T03:51:43;12.40;;;7.00;;
37527;SDS011;23372;52.050;4.810;2023-04-15T03:54:09;13.50;;;7.03;;
37527;SDS011;23372;52.050;4.810;2023-04-15T03:56:35;11.43;;;7.70;;
37527;SDS011;23372;52.050;4.810;2023-04-15T03:59:00;11.03;;;6.97;;
37527;SDS011;23372;52.050;4.810;2023-04-15T04:01:26;11.00;;;7.60;;
37527;SDS011;23372;52.050;4.810;2023-04-15T04:03:51;11.20;;;7.33;;
37527;SDS011;23372;52.050;4.810;2023-04-15T04:06:17;14.80;;;6.90;;
37527;SDS011;23372;52.050;4.810;2023-04-15T04:08:43;14.23;;;7.33;;
37527;SDS011;23372;52.050;4.810;2023-04-15T04:11:08;14.43;;;7.40;;
37527;SDS011;23372;52.050;4.810;2023-04-15T04:13:34;12.67;;;7.47;;
37527;SDS011;23372;52.050;4.810;2023-04-15T04:15:59;13.33;;;7.00;;
37527;SDS011;23372;52.050;4.810;2023-04-15T04:18:25;12.00;;;7.03;;
37527;SDS011;23372;52.050;4.810;2023-04-15T04:20:51;12.97;;;7.10;;
37527;SDS011;23372;52.050;4.810;2023-04-15T04:23:16;14.83;;;7.30;;
37527;SDS011;23372;52.050;4.810;2023-04-15T04:25:42;12.37;;;7.17;;
37527;SDS011;23372;52.050;4.810;2023-04-15T04:28:07;12.43;;;6.73;;
37527;SDS011;23372;52.050;4.810;2023-04-15T04:30:34;13.13;;;7.40;;
37527;SDS011;23372;52.050;4.810;2023-04-15T04:33:00;13.50;;;7.67;;
37527;SDS011;23372;52.050;4.810;2023-04-15T04:35:25;11.70;;;7.87;;
37527;SDS011;23372;52.050;4.810;2023-04-15T04:37:51;13.73;;;6.97;;
37527;SDS011;23372;52.050;4.810;2023-04-15T04:40:17;12.80;;;7.70;;
37527;SDS011;23372;52.050;4.810;2023-04-15T04:42:43;13.17;;;7.70;;
37527;SDS011;23372;52.050;4.810;2023-04-15T04:45:09;12.53;;;8.40;;
37527;SDS011;23372;52.050;4.810;2023-04-15T04:47:34;12.40;;;7.90;;
37527;SDS011;23372;52.050;4.810;2023-04-15T04:50:00;12.53;;;7.97;;
37527;SDS011;23372;52.050;4.810;2023-04-15T04:52:26;9.90;;;7.40;;
37527;SDS011;23372;52.050;4.810;2023-04-15T04:54:51;12.33;;;7.47;;
37527;SDS011;23372;52.050;4.810;2023-04-15T04:57:17;13.63;;;8.03;;
37527;SDS011;23372;52.050;4.810;2023-04-15T04:59:42;12.57;;;7.23;;
37527;SDS011;23372;52.050;4.810;2023-04-15T05:02:08;13.43;;;8.67;;
37527;SDS011;23372;52.050;4.810;2023-04-15T05:04:33;10.70;;;6.90;;
37527;SDS011;23372;52.050;4.810;2023-04-15T05:07:00;13.57;;;7.97;;
37527;SDS011;23372;52.050;4.810;2023-04-15T05:09:26;11.87;;;6.83;;
37527;SDS011;23372;52.050;4.810;2023-04-15T05:11:52;11.47;;;7.50;;
37527;SDS011;23372;52.050;4.810;2023-04-15T05:14:17;12.70;;;7.53;;
37527;SDS011;23372;52.050;4.810;2023-04-15T05:16:43;11.70;;;7.57;;
37527;SDS011;23372;52.050;4.810;2023-04-15T05:19:08;12.13;;;7.40;;
37527;SDS011;23372;52.050;4.810;2023-04-15T05:21:34;14.10;;;8.43;;
37527;SDS011;23372;52.050;4.810;2023-04-15T05:24:00;18.67;;;9.13;;
37527;SDS011;23372;52.050;4.810;2023-04-15T05:26:25;13.97;;;8.70;;
37527;SDS011;23372;52.050;4.810;2023-04-15T05:28:51;12.10;;;8.23;;
37527;SDS011;23372;52.050;4.810;2023-04-15T05:31:17;14.67;;;8.13;;
37527;SDS011;23372;52.050;4.810;2023-04-15T05:33:42;15.77;;;8.67;;
37527;SDS011;23372;52.050;4.810;2023-04-15T05:36:08;14.20;;;8.83;;
37527;SDS011;23372;52.050;4.810;2023-04-15T05:38:33;14.43;;;7.73;;
37527;SDS011;23372;52.050;4.810;2023-04-15T05:40:59;18.83;;;8.70;;
37527;SDS011;23372;52.050;4.810;2023-04-15T05:43:25;16.23;;;9.43;;
37527;SDS011;23372;52.050;4.810;2023-04-15T05:45:51;14.90;;;8.93;;
37527;SDS011;23372;52.050;4.810;2023-04-15T05:48:16;16.43;;;8.00;;
37527;SDS011;23372;52.050;4.810;2023-04-15T05:50:42;13.03;;;7.63;;
37527;SDS011;23372;52.050;4.810;2023-04-15T05:53:08;13.47;;;7.63;;
37527;SDS011;23372;52.050;4.810;2023-04-15T05:55:33;14.43;;;8.20;;
37527;SDS011;23372;52.050;4.810;2023-04-15T05:57:59;12.03;;;7.83;;
37527;SDS011;23372;52.050;4.810;2023-04-15T06:00:24;16.17;;;8.37;;
37527;SDS011;23372;52.050;4.810;2023-04-15T06:02:50;13.57;;;8.47;;
37527;SDS011;23372;52.050;4.810;2023-04-15T06:05:16;15.87;;;7.60;;
37527;SDS011;23372;52.050;4.810;2023-04-15T06:07:42;11.30;;;8.23;;
37527;SDS011;23372;52.050;4.810;2023-04-15T06:10:08;13.23;;;8.03;;
37527;SDS011;23372;52.050;4.810;2023-04-15T06:12:34;12.13;;;7.87;;
37527;SDS011;23372;52.050;4.810;2023-04-15T06:15:00;11.70;;;7.33;;
37527;SDS011;23372;52.050;4.810;2023-04-15T06:17:25;14.67;;;8.13;;
37527;SDS011;23372;52.050;4.810;2023-04-15T06:19:51;9.80;;;6.63;;
37527;SDS011;23372;52.050;4.810;2023-04-15T06:22:20;13.50;;;7.80;;
37527;SDS011;23372;52.050;4.810;2023-04-15T06:24:47;16.23;;;8.03;;
37527;SDS011;23372;52.050;4.810;2023-04-15T06:27:14;12.57;;;8.33;;
37527;SDS011;23372;52.050;4.810;2023-04-15T06:29:40;15.00;;;8.03;;
37527;SDS011;23372;52.050;4.810;2023-04-15T06:32:05;11.77;;;7.90;;
37527;SDS011;23372;52.050;4.810;2023-04-15T06:34:31;12.57;;;8.07;;
37527;SDS011;23372;52.050;4.810;2023-04-15T06:36:57;12.17;;;8.13;;
37527;SDS011;23372;52.050;4.810;2023-04-15T06:39:22;12.57;;;7.67;;
37527;SDS011;23372;52.050;4.810;2023-04-15T06:41:48;11.67;;;7.30;;
37527;SDS011;23372;52.050;4.810;2023-04-15T06:44:14;10.93;;;6.57;;
37527;SDS011;23372;52.050;4.810;2023-04-15T06:46:39;11.97;;;7.53;;
37527;SDS011;23372;52.050;4.810;2023-04-15T06:49:05;9.30;;;6.50;;
37527;SDS011;23372;52.050;4.810;2023-04-15T06:51:31;12.43;;;7.18;;
37527;SDS011;23372;52.050;4.810;2023-04-15T06:53:56;10.98;;;6.20;;
37527;SDS011;23372;52.050;4.810;2023-04-15T06:56:22;10.50;;;6.63;;
37527;SDS011;23372;52.050;4.810;2023-04-15T06:58:47;8.43;;;6.63;;
37527;SDS011;23372;52.050;4.810;2023-04-15T07:01:13;10.32;;;6.55;;
37527;SDS011;23372;52.050;4.810;2023-04-15T07:03:38;10.43;;;6.45;;
37527;SDS011;23372;52.050;4.810;2023-04-15T07:06:05;10.45;;;6.85;;
37527;SDS011;23372;52.050;4.810;2023-04-15T07:08:32;10.98;;;6.75;;
37527;SDS011;23372;52.050;4.810;2023-04-15T07:10:58;9.48;;;6.57;;
37527;SDS011;23372;52.050;4.810;2023-04-15T07:13:24;9.75;;;6.65;;
37527;SDS011;23372;52.050;4.810;2023-04-15T07:15:50;11.25;;;7.03;;
37527;SDS011;23372;52.050;4.810;2023-04-15T07:18:15;9.35;;;6.72;;
37527;SDS011;23372;52.050;4.810;2023-04-15T07:20:41;11.73;;;7.13;;
37527;SDS011;23372;52.050;4.810;2023-04-15T07:23:06;11.30;;;6.47;;
37527;SDS011;23372;52.050;4.810;2023-04-15T07:25:32;11.32;;;6.60;;
37527;SDS011;23372;52.050;4.810;2023-04-15T07:27:58;11.30;;;6.68;;
37527;SDS011;23372;52.050;4.810;2023-04-15T07:30:23;10.50;;;7.10;;
37527;SDS011;23372;52.050;4.810;2023-04-15T07:32:49;7.93;;;6.10;;
37527;SDS011;23372;52.050;4.810;2023-04-15T07:35:14;7.88;;;5.60;;
37527;SDS011;23372;52.050;4.810;2023-04-15T07:37:40;7.63;;;5.68;;
37527;SDS011;23372;52.050;4.810;2023-04-15T07:40:07;7.55;;;6.40;;
37527;SDS011;23372;52.050;4.810;2023-04-15T07:42:33;9.18;;;6.25;;
37527;SDS011;23372;52.050;4.810;2023-04-15T07:44:59;9.88;;;6.50;;
37527;SDS011;23372;52.050;4.810;2023-04-15T07:47:25;9.10;;;6.45;;
37527;SDS011;23372;52.050;4.810;2023-04-15T07:49:51;8.35;;;5.90;;
37527;SDS011;23372;52.050;4.810;2023-04-15T07:52:17;8.52;;;6.35;;
37527;SDS011;23372;52.050;4.810;2023-04-15T07:54:44;9.90;;;7.20;;
37527;SDS011;23372;52.050;4.810;2023-04-15T07:57:10;13.05;;;7.10;;
37527;SDS011;23372;52.050;4.810;2023-04-15T07:59:35;10.38;;;6.30;;
37527;SDS011;23372;52.050;4.810;2023-04-15T08:02:01;9.52;;;6.93;;
37527;SDS011;23372;52.050;4.810;2023-04-15T08:04:27;9.38;;;6.53;;
37527;SDS011;23372;52.050;4.810;2023-04-15T08:06:53;12.88;;;6.43;;
37527;SDS011;23372;52.050;4.810;2023-04-15T08:09:18;7.88;;;5.93;;
37527;SDS011;23372;52.050;4.810;2023-04-15T08:11:45;7.45;;;5.72;;
37527;SDS011;23372;52.050;4.810;2023-04-15T08:14:12;8.10;;;6.05;;
37527;SDS011;23372;52.050;4.810;2023-04-15T08:16:38;8.25;;;5.75;;
37527;SDS011;23372;52.050;4.810;2023-04-15T08:19:04;6.63;;;4.85;;
37527;SDS011;23372;52.050;4.810;2023-04-15T08:21:29;6.22;;;4.38;;
37527;SDS011;23372;52.050;4.810;2023-04-15T08:23:55;6.05;;;4.90;;
37527;SDS011;23372;52.050;4.810;2023-04-15T08:26:21;9.75;;;5.07;;
37527;SDS011;23372;52.050;4.810;2023-04-15T08:28:47;6.72;;;5.18;;
37527;SDS011;23372;52.050;4.810;2023-04-15T08:31:13;8.15;;;5.07;;
37527;SDS011;23372;52.050;4.810;2023-04-15T08:33:40;7.20;;;4.63;;
37527;SDS011;23372;52.050;4.810;2023-04-15T08:36:06;6.40;;;4.63;;
37527;SDS011;23372;52.050;4.810;2023-04-15T08:38:31;8.38;;;5.20;;
37527;SDS011;23372;52.050;4.810;2023-04-15T08:40:57;6.95;;;5.03;;
37527;SDS011;23372;52.050;4.810;2023-04-15T08:43:26;7.38;;;5.20;;
37527;SDS011;23372;52.050;4.810;2023-04-15T08:45:54;8.95;;;5.55;;
37527;SDS011;23372;52.050;4.810;2023-04-15T08:48:22;9.10;;;5.57;;
37527;SDS011;23372;52.050;4.810;2023-04-15T08:50:51;9.27;;;5.55;;
37527;SDS011;23372;52.050;4.810;2023-04-15T08:53:17;8.63;;;5.38;;
37527;SDS011;23372;52.050;4.810;2023-04-15T08:55:44;8.70;;;5.55;;
37527;SDS011;23372;52.050;4.810;2023-04-15T08:58:14;9.95;;;6.00;;
37527;SDS011;23372;52.050;4.810;2023-04-15T09:00:40;12.23;;;5.07;;
37527;SDS011;23372;52.050;4.810;2023-04-15T09:03:06;8.75;;;5.05;;
37527;SDS011;23372;52.050;4.810;2023-04-15T09:05:33;6.68;;;4.07;;
37527;SDS011;23372;52.050;4.810;2023-04-15T09:08:00;5.78;;;4.20;;
37527;SDS011;23372;52.050;4.810;2023-04-15T09:10:26;11.60;;;5.05;;
37527;SDS011;23372;52.050;4.810;2023-04-15T09:12:52;6.68;;;4.32;;
37527;SDS011;23372;52.050;4.810;2023-04-15T09:15:18;6.78;;;4.35;;
37527;SDS011;23372;52.050;4.810;2023-04-15T09:17:45;7.38;;;4.60;;
37527;SDS011;23372;52.050;4.810;2023-04-15T09:20:11;9.02;;;4.18;;
37527;SDS011;23372;52.050;4.810;2023-04-15T09:22:39;7.00;;;3.70;;
37527;SDS011;23372;52.050;4.810;2023-04-15T09:25:24;6.53;;;3.42;;
37527;SDS011;23372;52.050;4.810;2023-04-15T09:27:54;6.57;;;4.03;;
37527;SDS011;23372;52.050;4.810;2023-04-15T09:30:27;6.63;;;4.05;;
37527;SDS011;23372;52.050;4.810;2023-04-15T09:32:54;6.75;;;3.30;;
37527;SDS011;23372;52.050;4.810;2023-04-15T09:35:21;5.80;;;3.22;;
37527;SDS011;23372;52.050;4.810;2023-04-15T09:37:48;6.37;;;3.60;;
37527;SDS011;23372;52.050;4.810;2023-04-15T09:40:14;7.63;;;3.92;;
37527;SDS011;23372;52.050;4.810;2023-04-15T09:42:56;9.18;;;3.78;;
37527;SDS011;23372;52.050;4.810;2023-04-15T09:45:22;7.22;;;3.80;;
37527;SDS011;23372;52.050;4.810;2023-04-15T09:47:48;8.90;;;4.85;;
37527;SDS011;23372;52.050;4.810;2023-04-15T09:50:17;8.40;;;4.97;;
37527;SDS011;23372;52.050;4.810;2023-04-15T09:52:44;10.20;;;5.32;;
37527;SDS011;23372;52.050;4.810;2023-04-15T09:55:10;9.15;;;5.78;;
37527;SDS011;23372;52.050;4.810;2023-04-15T09:57:37;8.57;;;4.47;;
37527;SDS011;23372;52.050;4.810;2023-04-15T10:00:05;6.18;;;4.32;;
37527;SDS011;23372;52.050;4.810;2023-04-15T10:02:33;7.22;;;4.47;;
37527;SDS011;23372;52.050;4.810;2023-04-15T10:05:00;4.72;;;2.85;;
37527;SDS011;23372;52.050;4.810;2023-04-15T10:07:26;5.20;;;3.22;;
37527;SDS011;23372;52.050;4.810;2023-04-15T10:09:52;5.60;;;2.90;;
37527;SDS011;23372;52.050;4.810;2023-04-15T10:12:19;7.60;;;3.28;;
37527;SDS011;23372;52.050;4.810;2023-04-15T10:14:52;6.07;;;2.90;;
37527;SDS011;23372;52.050;4.810;2023-04-15T10:17:28;5.38;;;2.95;;
37527;SDS011;23372;52.050;4.810;2023-04-15T10:19:59;6.53;;;2.83;;
37527;SDS011;23372;52.050;4.810;2023-04-15T10:22:27;4.50;;;3.03;;
37527;SDS011;23372;52.050;4.810;2023-04-15T10:24:53;5.75;;;2.50;;
37527;SDS011;23372;52.050;4.810;2023-04-15T10:27:23;6.53;;;3.50;;
37527;SDS011;23372;52.050;4.810;2023-04-15T10:29:50;6.05;;;2.80;;
37527;SDS011;23372;52.050;4.810;2023-04-15T10:32:19;7.13;;;2.70;;
37527;SDS011;23372;52.050;4.810;2023-04-15T10:34:46;4.47;;;2.20;;
37527;SDS011;23372;52.050;4.810;2023-04-15T10:37:18;3.10;;;2.30;;
37527;SDS011;23372;52.050;4.810;2023-04-15T10:39:57;5.15;;;2.22;;
37527;SDS011;23372;52.050;4.810;2023-04-15T10:42:22;3.37;;;2.27;;
37527;SDS011;23372;52.050;4.810;2023-04-15T10:44:48;2.97;;;2.30;;
37527;SDS011;23372;52.050;4.810;2023-04-15T10:47:16;5.70;;;3.60;;
37527;SDS011;23372;52.050;4.810;2023-04-15T10:49:48;6.97;;;4.00;;
37527;SDS011;23372;52.050;4.810;2023-04-15T10:52:15;6.70;;;3.70;;
37527;SDS011;23372;52.050;4.810;2023-04-15T10:54:43;7.35;;;3.90;;
37527;SDS011;23372;52.050;4.810;2023-04-15T10:57:20;8.07;;;4.00;;
37527;SDS011;23372;52.050;4.810;2023-04-15T11:02:45;10.57;;;4.25;;
37527;SDS011;23372;52.050;4.810;2023-04-15T11:05:16;7.35;;;4.22;;
37527;SDS011;23372;52.050;4.810;2023-04-15T11:12:53;7.45;;;4.30;;
37527;SDS011;23372;52.050;4.810;2023-04-15T11:15:26;6.05;;;4.00;;
37527;SDS011;23372;52.050;4.810;2023-04-15T11:17:57;6.00;;;3.72;;
37527;SDS011;23372;52.050;4.810;2023-04-15T11:20:24;5.85;;;3.92;;
37527;SDS011;23372;52.050;4.810;2023-04-15T11:22:50;9.98;;;4.78;;
37527;SDS011;23372;52.050;4.810;2023-04-15T11:25:26;7.25;;;4.53;;
37527;SDS011;23372;52.050;4.810;2023-04-15T11:27:53;9.90;;;3.97;;
37527;SDS011;23372;52.050;4.810;2023-04-15T11:30:20;10.43;;;4.47;;
37527;SDS011;23372;52.050;4.810;2023-04-15T11:32:50;6.75;;;3.67;;
37527;SDS011;23372;52.050;4.810;2023-04-15T11:35:16;5.68;;;3.58;;
37527;SDS011;23372;52.050;4.810;2023-04-15T11:37:43;5.93;;;3.80;;
37527;SDS011;23372;52.050;4.810;2023-04-15T11:40:09;6.50;;;3.80;;
37527;SDS011;23372;52.050;4.810;2023-04-15T11:42:35;7.68;;;3.90;;
37527;SDS011;23372;52.050;4.810;2023-04-15T11:45:07;6.18;;;3.50;;
37527;SDS011;23372;52.050;4.810;2023-04-15T11:47:35;5.90;;;3.63;;
37527;SDS011;23372;52.050;4.810;2023-04-15T11:52:53;5.97;;;3.72;;
37527;SDS011;23372;52.050;4.810;2023-04-15T11:55:22;4.78;;;3.13;;
37527;SDS011;23372;52.050;4.810;2023-04-15T11:57:49;7.55;;;3.25;;
37527;SDS011;23372;52.050;4.810;2023-04-15T12:00:15;8.55;;;3.17;;
37527;SDS011;23372;52.050;4.810;2023-04-15T12:02:41;7.65;;;3.10;;
37527;SDS011;23372;52.050;4.810;2023-04-15T12:05:08;4.57;;;3.30;;
37527;SDS011;23372;52.050;4.810;2023-04-15T12:07:56;5.63;;;2.40;;
37527;SDS011;23372;52.050;4.810;2023-04-15T12:10:23;4.43;;;2.78;;
37527;SDS011;23372;52.050;4.810;2023-04-15T12:12:51;4.47;;;2.53;;
37527;SDS011;23372;52.050;4.810;2023-04-15T12:15:19;4.55;;;2.92;;
37527;SDS011;23372;52.050;4.810;2023-04-15T12:17:46;9.18;;;2.97;;
37527;SDS011;23372;52.050;4.810;2023-04-15T12:20:11;4.70;;;2.65;;
37527;SDS011;23372;52.050;4.810;2023-04-15T12:22:37;7.00;;;2.40;;
37527;SDS011;23372;52.050;4.810;2023-04-15T12:25:02;5.25;;;2.75;;
37527;SDS011;23372;52.050;4.810;2023-04-15T12:27:30;6.90;;;2.63;;
37527;SDS011;23372;52.050;4.810;2023-04-15T12:30:03;5.47;;;2.85;;
37527;SDS011;23372;52.050;4.810;2023-04-15T12:32:29;5.78;;;2.88;;
37527;SDS011;23372;52.050;4.810;2023-04-15T12:34:59;4.18;;;2.70;;
37527;SDS011;23372;52.050;4.810;2023-04-15T12:37:25;6.28;;;2.95;;
37527;SDS011;23372;52.050;4.810;2023-04-15T12:39:51;4.65;;;2.53;;
37527;SDS011;23372;52.050;4.810;2023-04-15T12:42:18;5.70;;;2.63;;
37527;SDS011;23372;52.050;4.810;2023-04-15T12:44:43;5.15;;;3.00;;
37527;SDS011;23372;52.050;4.810;2023-04-15T12:47:09;6.63;;;2.50;;
37527;SDS011;23372;52.050;4.810;2023-04-15T12:49:36;4.50;;;2.60;;
37527;SDS011;23372;52.050;4.810;2023-04-15T12:52:02;4.22;;;2.30;;
37527;SDS011;23372;52.050;4.810;2023-04-15T12:54:28;6.72;;;2.75;;
37527;SDS011;23372;52.050;4.810;2023-04-15T12:56:55;7.30;;;2.08;;
37527;SDS011;23372;52.050;4.810;2023-04-15T12:59:21;4.50;;;1.92;;
37527;SDS011;23372;52.050;4.810;2023-04-15T13:01:48;5.40;;;2.47;;
37527;SDS011;23372;52.050;4.810;2023-04-15T13:04:15;4.75;;;1.92;;
37527;SDS011;23372;52.050;4.810;2023-04-15T13:06:41;5.07;;;2.22;;
37527;SDS011;23372;52.050;4.810;2023-04-15T13:09:07;4.93;;;2.22;;
37527;SDS011;23372;52.050;4.810;2023-04-15T13:11:32;6.75;;;2.90;;
37527;SDS011;23372;52.050;4.810;2023-04-15T13:14:02;4.68;;;1.80;;
37527;SDS011;23372;52.050;4.810;2023-04-15T13:16:29;3.60;;;1.92;;
37527;SDS011;23372;52.050;4.810;2023-04-15T13:18:55;3.33;;;1.90;;
37527;SDS011;23372;52.050;4.810;2023-04-15T13:21:21;5.75;;;1.80;;
37527;SDS011;23372;52.050;4.810;2023-04-15T13:23:47;3.33;;;1.85;;
37527;SDS011;23372;52.050;4.810;2023-04-15T13:26:14;3.05;;;1.65;;
37527;SDS011;23372;52.050;4.810;2023-04-15T13:28:41;15.15;;;2.25;;
37527;SDS011;23372;52.050;4.810;2023-04-15T13:31:07;2.70;;;1.50;;
37527;SDS011;23372;52.050;4.810;2023-04-15T13:33:32;5.75;;;1.88;;
37527;SDS011;23372;52.050;4.810;2023-04-15T13:35:58;2.95;;;1.42;;
37527;SDS011;23372;52.050;4.810;2023-04-15T13:38:24;5.35;;;1.48;;
37527;SDS011;23372;52.050;4.810;2023-04-15T13:40:50;4.63;;;2.17;;
37527;SDS011;23372;52.050;4.810;2023-04-15T13:43:15;4.35;;;1.70;;
37527;SDS011;23372;52.050;4.810;2023-04-15T13:45:41;5.32;;;1.50;;
37527;SDS011;23372;52.050;4.810;2023-04-15T13:48:07;3.42;;;1.63;;
37527;SDS011;23372;52.050;4.810;2023-04-15T13:50:33;4.18;;;1.83;;
37527;SDS011;23372;52.050;4.810;2023-04-15T13:52:58;6.38;;;1.98;;
37527;SDS011;23372;52.050;4.810;2023-04-15T13:55:24;4.55;;;1.55;;
37527;SDS011;23372;52.050;4.810;2023-04-15T13:57:50;3.00;;;1.85;;
37527;SDS011;23372;52.050;4.810;2023-04-15T14:00:16;6.18;;;1.88;;
37527;SDS011;23372;52.050;4.810;2023-04-15T14:02:41;8.40;;;2.20;;
37527;SDS011;23372;52.050;4.810;2023-04-15T14:05:07;5.50;;;1.63;;
37527;SDS011;23372;52.050;4.810;2023-04-15T14:07:35;5.72;;;1.48;;
37527;SDS011;23372;52.050;4.810;2023-04-15T14:10:01;3.28;;;1.33;;
37527;SDS011;23372;52.050;4.810;2023-04-15T14:12:27;3.35;;;0.95;;
37527;SDS011;23372;52.050;4.810;2023-04-15T14:14:52;1.50;;;0.73;;
37527;SDS011;23372;52.050;4.810;2023-04-15T14:17:18;4.45;;;1.00;;
37527;SDS011;23372;52.050;4.810;2023-04-15T14:19:43;3.15;;;1.00;;
37527;SDS011;23372;52.050;4.810;2023-04-15T14:22:09;3.72;;;1.40;;
37527;SDS011;23372;52.050;4.810;2023-04-15T14:24:35;7.78;;;0.90;;
37527;SDS011;23372;52.050;4.810;2023-04-15T14:27:00;3.85;;;1.27;;
37527;SDS011;23372;52.050;4.810;2023-04-15T14:29:26;3.55;;;1.27;;
37527;SDS011;23372;52.050;4.810;2023-04-15T14:31:52;3.10;;;1.13;;
37527;SDS011;23372;52.050;4.810;2023-04-15T14:34:17;4.15;;;0.93;;
37527;SDS011;23372;52.050;4.810;2023-04-15T14:36:43;2.78;;;1.27;;
37527;SDS011;23372;52.050;4.810;2023-04-15T14:39:09;2.83;;;1.40;;
37527;SDS011;23372;52.050;4.810;2023-04-15T14:41:35;6.78;;;1.17;;
37527;SDS011;23372;52.050;4.810;2023-04-15T14:44:01;3.30;;;1.08;;
37527;SDS011;23372;52.050;4.810;2023-04-15T14:46:27;2.43;;;0.80;;
37527;SDS011;23372;52.050;4.810;2023-04-15T14:48:52;2.15;;;0.90;;